sensor_id;sensor_type;location;lat;lon;timestamp;temperature;humidity
43520;DHT22;46848;51.980;5.918;2023-03-14T00:00:11;13.80;76.00
43520;DHT22;46848;51.980;5.918;2023-03-14T00:02:38;13.70;75.60
43520;DHT22;46848;51.980;5.918;2023-03-14T00:05:05;13.80;75.60
43520;DHT22;46848;51.980;5.918;2023-03-14T00:07:38;13.80;75.50
43520;DHT22;46848;51.980;5.918;2023-03-14T00:10:09;13.70;75.50
43520;DHT22;46848;51.980;5.918;2023-03-14T00:12:35;13.70;75.60
43520;DHT22;46848;51.980;5.918;2023-03-14T00:15:01;13.70;75.70
43520;DHT22;46848;51.980;5.918;2023-03-14T00:17:29;13.70;75.70
43520;DHT22;46848;51.980;5.918;2023-03-14T00:19:55;13.70;75.50
43520;DHT22;46848;51.980;5.918;2023-03-14T00:22:21;13.70;75.50
43520;DHT22;46848;51.980;5.918;2023-03-14T00:24:47;13.60;75.60
43520;DHT22;46848;51.980;5.918;2023-03-14T00:27:13;13.60;76.50
43520;DHT22;46848;51.980;5.918;2023-03-14T00:29:38;13.60;76.90
43520;DHT22;46848;51.980;5.918;2023-03-14T00:32:04;13.40;77.10
43520;DHT22;46848;51.980;5.918;2023-03-14T00:34:32;13.40;77.10
43520;DHT22;46848;51.980;5.918;2023-03-14T00:36:58;13.30;76.70
43520;DHT22;46848;51.980;5.918;2023-03-14T00:39:23;13.20;77.60
43520;DHT22;46848;51.980;5.918;2023-03-14T00:41:49;13.20;76.70
43520;DHT22;46848;51.980;5.918;2023-03-14T00:44:14;13.10;76.60
43520;DHT22;46848;51.980;5.918;2023-03-14T00:46:40;13.10;76.20
43520;DHT22;46848;51.980;5.918;2023-03-14T00:49:06;13.10;76.10
43520;DHT22;46848;51.980;5.918;2023-03-14T00:51:31;13.10;76.10
43520;DHT22;46848;51.980;5.918;2023-03-14T00:53:57;13.00;75.80
43520;DHT22;46848;51.980;5.918;2023-03-14T00:56:22;13.00;75.70
43520;DHT22;46848;51.980;5.918;2023-03-14T00:58:48;13.00;75.80
43520;DHT22;46848;51.980;5.918;2023-03-14T01:01:16;12.90;75.50
43520;DHT22;46848;51.980;5.918;2023-03-14T01:03:42;12.90;75.50
43520;DHT22;46848;51.980;5.918;2023-03-14T01:08:34;12.80;75.50
43520;DHT22;46848;51.980;5.918;2023-03-14T01:11:24;12.80;75.70
43520;DHT22;46848;51.980;5.918;2023-03-14T01:13:51;12.80;75.50
43520;DHT22;46848;51.980;5.918;2023-03-14T01:16:18;12.80;75.60
43520;DHT22;46848;51.980;5.918;2023-03-14T01:18:45;12.80;75.60
43520;DHT22;46848;51.980;5.918;2023-03-14T01:21:17;12.80;76.00
43520;DHT22;46848;51.980;5.918;2023-03-14T01:23:44;12.70;75.50
43520;DHT22;46848;51.980;5.918;2023-03-14T01:26:11;12.70;75.70
43520;DHT22;46848;51.980;5.918;2023-03-14T01:28:36;12.70;75.60
43520;DHT22;46848;51.980;5.918;2023-03-14T01:31:05;12.70;75.50
43520;DHT22;46848;51.980;5.918;2023-03-14T01:33:31;12.70;75.40
43520;DHT22;46848;51.980;5.918;2023-03-14T01:35:57;12.60;75.20
43520;DHT22;46848;51.980;5.918;2023-03-14T01:38:23;12.60;75.20
43520;DHT22;46848;51.980;5.918;2023-03-14T01:40:48;12.70;75.00
43520;DHT22;46848;51.980;5.918;2023-03-14T01:43:17;12.70;75.30
43520;DHT22;46848;51.980;5.918;2023-03-14T01:48:54;12.60;75.30
43520;DHT22;46848;51.980;5.918;2023-03-14T01:51:28;12.50;76.00
43520;DHT22;46848;51.980;5.918;2023-03-14T01:54:00;12.50;75.80
43520;DHT22;46848;51.980;5.918;2023-03-14T01:56:27;12.40;75.70
43520;DHT22;46848;51.980;5.918;2023-03-14T01:58:54;12.50;76.10
43520;DHT22;46848;51.980;5.918;2023-03-14T02:01:21;12.50;76.10
43520;DHT22;46848;51.980;5.918;2023-03-14T02:03:55;12.50;76.60
43520;DHT22;46848;51.980;5.918;2023-03-14T02:06:24;12.40;77.00
43520;DHT22;46848;51.980;5.918;2023-03-14T02:08:52;12.40;77.30
43520;DHT22;46848;51.980;5.918;2023-03-14T02:11:18;12.40;77.60
43520;DHT22;46848;51.980;5.918;2023-03-14T02:13:44;12.40;77.60
43520;DHT22;46848;51.980;5.918;2023-03-14T02:16:11;12.30;77.80
43520;DHT22;46848;51.980;5.918;2023-03-14T02:18:37;12.30;78.10
43520;DHT22;46848;51.980;5.918;2023-03-14T02:21:12;12.30;78.90
43520;DHT22;46848;51.980;5.918;2023-03-14T02:26:31;12.30;79.00
43520;DHT22;46848;51.980;5.918;2023-03-14T02:28:59;12.20;79.10
43520;DHT22;46848;51.980;5.918;2023-03-14T02:31:25;12.10;79.10
43520;DHT22;46848;51.980;5.918;2023-03-14T02:33:51;12.10;79.40
43520;DHT22;46848;51.980;5.918;2023-03-14T02:36:18;12.10;79.60
43520;DHT22;46848;51.980;5.918;2023-03-14T02:39:07;12.00;80.10
43520;DHT22;46848;51.980;5.918;2023-03-14T02:41:35;11.90;80.40
43520;DHT22;46848;51.980;5.918;2023-03-14T02:44:00;12.00;80.30
43520;DHT22;46848;51.980;5.918;2023-03-14T02:46:26;11.90;80.40
43520;DHT22;46848;51.980;5.918;2023-03-14T02:49:08;11.80;80.40
43520;DHT22;46848;51.980;5.918;2023-03-14T02:51:35;11.70;80.10
43520;DHT22;46848;51.980;5.918;2023-03-14T02:54:01;11.80;80.20
43520;DHT22;46848;51.980;5.918;2023-03-14T02:56:27;11.70;80.10
43520;DHT22;46848;51.980;5.918;2023-03-14T02:58:53;11.80;80.10
43520;DHT22;46848;51.980;5.918;2023-03-14T03:01:18;11.80;80.00
43520;DHT22;46848;51.980;5.918;2023-03-14T03:03:44;11.80;79.90
43520;DHT22;46848;51.980;5.918;2023-03-14T03:06:10;11.80;80.90
43520;DHT22;46848;51.980;5.918;2023-03-14T03:08:35;11.70;79.50
43520;DHT22;46848;51.980;5.918;2023-03-14T03:11:02;11.60;80.70
43520;DHT22;46848;51.980;5.918;2023-03-14T03:13:27;11.70;80.10
43520;DHT22;46848;51.980;5.918;2023-03-14T03:15:53;11.60;80.10
43520;DHT22;46848;51.980;5.918;2023-03-14T03:18:19;11.60;80.10
43520;DHT22;46848;51.980;5.918;2023-03-14T03:20:45;11.60;79.50
43520;DHT22;46848;51.980;5.918;2023-03-14T03:23:11;11.60;79.90
43520;DHT22;46848;51.980;5.918;2023-03-14T03:25:37;11.60;79.70
43520;DHT22;46848;51.980;5.918;2023-03-14T03:28:02;11.60;80.30
43520;DHT22;46848;51.980;5.918;2023-03-14T03:30:35;11.50;80.60
43520;DHT22;46848;51.980;5.918;2023-03-14T03:33:02;11.50;80.30
43520;DHT22;46848;51.980;5.918;2023-03-14T03:35:27;11.50;80.10
43520;DHT22;46848;51.980;5.918;2023-03-14T03:37:53;11.50;80.10
43520;DHT22;46848;51.980;5.918;2023-03-14T03:40:18;11.50;79.60
43520;DHT22;46848;51.980;5.918;2023-03-14T03:42:44;11.50;80.00
43520;DHT22;46848;51.980;5.918;2023-03-14T03:45:10;11.50;79.90
43520;DHT22;46848;51.980;5.918;2023-03-14T03:47:35;11.50;79.80
43520;DHT22;46848;51.980;5.918;2023-03-14T03:50:01;11.50;80.10
43520;DHT22;46848;51.980;5.918;2023-03-14T03:52:27;11.50;80.30
43520;DHT22;46848;51.980;5.918;2023-03-14T03:54:53;11.50;79.90
43520;DHT22;46848;51.980;5.918;2023-03-14T03:57:19;11.50;79.50
43520;DHT22;46848;51.980;5.918;2023-03-14T03:59:45;11.50;79.90
43520;DHT22;46848;51.980;5.918;2023-03-14T04:02:10;11.50;79.40
43520;DHT22;46848;51.980;5.918;2023-03-14T04:04:36;11.50;79.40
43520;DHT22;46848;51.980;5.918;2023-03-14T04:07:03;11.60;79.00
43520;DHT22;46848;51.980;5.918;2023-03-14T04:09:30;11.60;79.30
43520;DHT22;46848;51.980;5.918;2023-03-14T04:11:55;11.60;79.20
43520;DHT22;46848;51.980;5.918;2023-03-14T04:14:21;11.60;79.00
43520;DHT22;46848;51.980;5.918;2023-03-14T04:16:47;11.60;79.10
43520;DHT22;46848;51.980;5.918;2023-03-14T04:19:13;11.60;79.10
43520;DHT22;46848;51.980;5.918;2023-03-14T04:21:38;11.70;79.60
43520;DHT22;46848;51.980;5.918;2023-03-14T04:24:09;11.60;79.10
43520;DHT22;46848;51.980;5.918;2023-03-14T04:26:34;11.60;79.10
43520;DHT22;46848;51.980;5.918;2023-03-14T04:29:00;11.70;79.00
43520;DHT22;46848;51.980;5.918;2023-03-14T04:31:25;11.60;79.10
43520;DHT22;46848;51.980;5.918;2023-03-14T04:33:51;11.60;79.00
43520;DHT22;46848;51.980;5.918;2023-03-14T04:36:17;11.70;79.20
43520;DHT22;46848;51.980;5.918;2023-03-14T04:38:42;11.60;78.80
43520;DHT22;46848;51.980;5.918;2023-03-14T04:41:08;11.70;78.40
43520;DHT22;46848;51.980;5.918;2023-03-14T04:43:33;11.70;78.40
43520;DHT22;46848;51.980;5.918;2023-03-14T04:45:59;11.70;78.30
43520;DHT22;46848;51.980;5.918;2023-03-14T04:48:25;11.70;78.30
43520;DHT22;46848;51.980;5.918;2023-03-14T04:50:52;11.70;78.40
43520;DHT22;46848;51.980;5.918;2023-03-14T04:53:18;11.70;78.00
43520;DHT22;46848;51.980;5.918;2023-03-14T04:55:54;11.80;78.10
43520;DHT22;46848;51.980;5.918;2023-03-14T04:58:21;11.80;78.20
43520;DHT22;46848;51.980;5.918;2023-03-14T05:00:46;11.80;78.10
43520;DHT22;46848;51.980;5.918;2023-03-14T05:03:15;11.80;78.80
43520;DHT22;46848;51.980;5.918;2023-03-14T05:05:40;11.80;78.30
43520;DHT22;46848;51.980;5.918;2023-03-14T05:08:06;11.80;78.20
43520;DHT22;46848;51.980;5.918;2023-03-14T05:10:32;11.80;78.00
43520;DHT22;46848;51.980;5.918;2023-03-14T05:12:57;11.80;77.90
43520;DHT22;46848;51.980;5.918;2023-03-14T05:15:23;11.80;78.40
43520;DHT22;46848;51.980;5.918;2023-03-14T05:17:49;11.80;77.90
43520;DHT22;46848;51.980;5.918;2023-03-14T05:20:15;11.80;78.60
43520;DHT22;46848;51.980;5.918;2023-03-14T05:22:41;11.80;78.40
43520;DHT22;46848;51.980;5.918;2023-03-14T05:25:07;11.80;78.20
43520;DHT22;46848;51.980;5.918;2023-03-14T05:27:33;11.70;78.60
43520;DHT22;46848;51.980;5.918;2023-03-14T05:29:59;11.70;78.90
43520;DHT22;46848;51.980;5.918;2023-03-14T05:32:24;11.70;79.30
43520;DHT22;46848;51.980;5.918;2023-03-14T05:34:50;11.60;79.70
43520;DHT22;46848;51.980;5.918;2023-03-14T05:37:16;11.60;79.10
43520;DHT22;46848;51.980;5.918;2023-03-14T05:39:42;11.60;78.80
43520;DHT22;46848;51.980;5.918;2023-03-14T05:42:07;11.70;79.70
43520;DHT22;46848;51.980;5.918;2023-03-14T05:44:33;11.70;79.80
43520;DHT22;46848;51.980;5.918;2023-03-14T05:46:58;11.60;79.30
43520;DHT22;46848;51.980;5.918;2023-03-14T05:49:24;11.60;79.50
43520;DHT22;46848;51.980;5.918;2023-03-14T05:51:51;11.60;79.60
43520;DHT22;46848;51.980;5.918;2023-03-14T05:54:16;11.60;80.10
43520;DHT22;46848;51.980;5.918;2023-03-14T05:56:42;11.60;80.50
43520;DHT22;46848;51.980;5.918;2023-03-14T05:59:08;11.60;80.10
43520;DHT22;46848;51.980;5.918;2023-03-14T06:01:35;11.50;80.20
43520;DHT22;46848;51.980;5.918;2023-03-14T06:04:00;11.40;81.40
43520;DHT22;46848;51.980;5.918;2023-03-14T06:06:26;11.50;80.80
43520;DHT22;46848;51.980;5.918;2023-03-14T06:08:51;11.40;80.50
43520;DHT22;46848;51.980;5.918;2023-03-14T06:11:17;11.40;79.40
43520;DHT22;46848;51.980;5.918;2023-03-14T06:13:43;11.50;79.30
43520;DHT22;46848;51.980;5.918;2023-03-14T06:16:09;11.60;79.10
43520;DHT22;46848;51.980;5.918;2023-03-14T06:18:34;11.70;78.90
43520;DHT22;46848;51.980;5.918;2023-03-14T06:21:00;11.70;78.70
43520;DHT22;46848;51.980;5.918;2023-03-14T06:23:26;11.70;78.80
43520;DHT22;46848;51.980;5.918;2023-03-14T06:25:52;11.80;78.50
43520;DHT22;46848;51.980;5.918;2023-03-14T06:28:18;11.80;78.30
43520;DHT22;46848;51.980;5.918;2023-03-14T06:30:43;11.80;78.50
43520;DHT22;46848;51.980;5.918;2023-03-14T06:33:09;11.80;78.20
43520;DHT22;46848;51.980;5.918;2023-03-14T06:35:35;11.80;78.30
43520;DHT22;46848;51.980;5.918;2023-03-14T06:38:00;11.90;79.00
43520;DHT22;46848;51.980;5.918;2023-03-14T06:40:26;11.90;78.90
43520;DHT22;46848;51.980;5.918;2023-03-14T06:42:52;11.90;78.80
43520;DHT22;46848;51.980;5.918;2023-03-14T06:45:17;11.90;78.60
43520;DHT22;46848;51.980;5.918;2023-03-14T06:47:43;11.90;78.60
43520;DHT22;46848;51.980;5.918;2023-03-14T06:50:09;11.90;78.40
43520;DHT22;46848;51.980;5.918;2023-03-14T06:52:36;11.90;79.40
43520;DHT22;46848;51.980;5.918;2023-03-14T06:55:02;11.90;79.10
43520;DHT22;46848;51.980;5.918;2023-03-14T06:57:28;11.90;79.20
43520;DHT22;46848;51.980;5.918;2023-03-14T06:59:54;12.00;78.90
43520;DHT22;46848;51.980;5.918;2023-03-14T07:02:22;12.00;78.80
43520;DHT22;46848;51.980;5.918;2023-03-14T07:04:48;12.00;78.80
43520;DHT22;46848;51.980;5.918;2023-03-14T07:07:13;12.00;79.00
43520;DHT22;46848;51.980;5.918;2023-03-14T07:09:39;12.00;78.80
43520;DHT22;46848;51.980;5.918;2023-03-14T07:12:05;12.00;78.80
43520;DHT22;46848;51.980;5.918;2023-03-14T07:14:30;12.00;80.50
43520;DHT22;46848;51.980;5.918;2023-03-14T07:16:56;11.90;81.00
43520;DHT22;46848;51.980;5.918;2023-03-14T07:19:22;11.80;81.10
43520;DHT22;46848;51.980;5.918;2023-03-14T07:21:47;11.80;81.30
43520;DHT22;46848;51.980;5.918;2023-03-14T07:24:13;11.70;82.20
43520;DHT22;46848;51.980;5.918;2023-03-14T07:26:39;11.70;83.10
43520;DHT22;46848;51.980;5.918;2023-03-14T07:29:04;11.60;83.20
43520;DHT22;46848;51.980;5.918;2023-03-14T07:31:30;11.60;83.10
43520;DHT22;46848;51.980;5.918;2023-03-14T07:33:57;11.60;83.60
43520;DHT22;46848;51.980;5.918;2023-03-14T07:36:23;11.50;83.30
43520;DHT22;46848;51.980;5.918;2023-03-14T07:38:48;11.50;82.80
43520;DHT22;46848;51.980;5.918;2023-03-14T07:41:14;11.50;82.60
43520;DHT22;46848;51.980;5.918;2023-03-14T07:43:40;11.50;82.40
43520;DHT22;46848;51.980;5.918;2023-03-14T07:46:06;11.60;82.40
43520;DHT22;46848;51.980;5.918;2023-03-14T07:48:32;11.60;82.20
43520;DHT22;46848;51.980;5.918;2023-03-14T07:50:58;11.60;81.80
43520;DHT22;46848;51.980;5.918;2023-03-14T07:53:24;11.50;81.70
43520;DHT22;46848;51.980;5.918;2023-03-14T07:55:51;11.50;81.90
43520;DHT22;46848;51.980;5.918;2023-03-14T07:58:18;11.50;81.70
43520;DHT22;46848;51.980;5.918;2023-03-14T08:00:43;11.30;81.70
43520;DHT22;46848;51.980;5.918;2023-03-14T08:03:09;11.30;81.70
43520;DHT22;46848;51.980;5.918;2023-03-14T08:05:36;11.30;81.60
43520;DHT22;46848;51.980;5.918;2023-03-14T08:08:03;11.20;81.50
43520;DHT22;46848;51.980;5.918;2023-03-14T08:10:29;11.20;82.00
43520;DHT22;46848;51.980;5.918;2023-03-14T08:12:56;11.20;81.40
43520;DHT22;46848;51.980;5.918;2023-03-14T08:15:23;11.10;81.20
43520;DHT22;46848;51.980;5.918;2023-03-14T08:17:49;11.10;81.20
43520;DHT22;46848;51.980;5.918;2023-03-14T08:20:24;11.10;81.10
43520;DHT22;46848;51.980;5.918;2023-03-14T08:22:50;11.10;81.80
43520;DHT22;46848;51.980;5.918;2023-03-14T08:25:15;11.00;81.10
43520;DHT22;46848;51.980;5.918;2023-03-14T08:27:42;11.00;81.60
43520;DHT22;46848;51.980;5.918;2023-03-14T08:30:11;11.00;81.10
43520;DHT22;46848;51.980;5.918;2023-03-14T08:32:37;11.00;81.00
43520;DHT22;46848;51.980;5.918;2023-03-14T08:35:04;10.90;80.90
43520;DHT22;46848;51.980;5.918;2023-03-14T08:37:31;11.00;80.90
43520;DHT22;46848;51.980;5.918;2023-03-14T08:39:57;11.00;80.80
43520;DHT22;46848;51.980;5.918;2023-03-14T08:42:23;11.00;80.60
43520;DHT22;46848;51.980;5.918;2023-03-14T08:44:48;11.00;80.60
43520;DHT22;46848;51.980;5.918;2023-03-14T08:47:14;11.00;80.50
43520;DHT22;46848;51.980;5.918;2023-03-14T08:49:40;10.90;80.40
43520;DHT22;46848;51.980;5.918;2023-03-14T08:52:05;10.90;80.30
43520;DHT22;46848;51.980;5.918;2023-03-14T08:54:31;10.80;79.90
43520;DHT22;46848;51.980;5.918;2023-03-14T08:56:58;10.60;80.10
43520;DHT22;46848;51.980;5.918;2023-03-14T08:59:23;10.40;80.10
43520;DHT22;46848;51.980;5.918;2023-03-14T09:01:49;10.30;80.60
43520;DHT22;46848;51.980;5.918;2023-03-14T09:04:15;10.20;80.40
43520;DHT22;46848;51.980;5.918;2023-03-14T09:06:41;10.20;80.00
43520;DHT22;46848;51.980;5.918;2023-03-14T09:09:07;10.20;80.20
43520;DHT22;46848;51.980;5.918;2023-03-14T09:11:32;10.10;80.20
43520;DHT22;46848;51.980;5.918;2023-03-14T09:13:58;10.20;80.30
43520;DHT22;46848;51.980;5.918;2023-03-14T09:16:24;10.30;79.90
43520;DHT22;46848;51.980;5.918;2023-03-14T09:18:50;10.30;79.80
43520;DHT22;46848;51.980;5.918;2023-03-14T09:21:15;10.20;79.20
43520;DHT22;46848;51.980;5.918;2023-03-14T09:23:42;10.20;79.70
43520;DHT22;46848;51.980;5.918;2023-03-14T09:26:10;10.20;79.30
43520;DHT22;46848;51.980;5.918;2023-03-14T09:28:36;10.10;79.10
43520;DHT22;46848;51.980;5.918;2023-03-14T09:31:06;10.10;79.20
43520;DHT22;46848;51.980;5.918;2023-03-14T09:33:34;10.00;78.40
43520;DHT22;46848;51.980;5.918;2023-03-14T09:36:01;9.90;79.10
43520;DHT22;46848;51.980;5.918;2023-03-14T09:38:27;9.90;79.10
43520;DHT22;46848;51.980;5.918;2023-03-14T09:40:54;10.10;79.50
43520;DHT22;46848;51.980;5.918;2023-03-14T09:43:21;10.20;78.70
43520;DHT22;46848;51.980;5.918;2023-03-14T09:45:48;10.20;77.40
43520;DHT22;46848;51.980;5.918;2023-03-14T09:48:29;10.20;77.00
43520;DHT22;46848;51.980;5.918;2023-03-14T09:50:58;10.20;77.50
43520;DHT22;46848;51.980;5.918;2023-03-14T09:53:28;10.40;77.50
43520;DHT22;46848;51.980;5.918;2023-03-14T09:55:59;10.60;77.40
43520;DHT22;46848;51.980;5.918;2023-03-14T09:58:25;10.60;75.00
43520;DHT22;46848;51.980;5.918;2023-03-14T10:00:55;10.70;75.80
43520;DHT22;46848;51.980;5.918;2023-03-14T10:05:47;10.80;75.60
43520;DHT22;46848;51.980;5.918;2023-03-14T10:08:13;10.90;75.50
43520;DHT22;46848;51.980;5.918;2023-03-14T10:10:40;11.00;74.20
43520;DHT22;46848;51.980;5.918;2023-03-14T10:13:18;11.10;74.40
43520;DHT22;46848;51.980;5.918;2023-03-14T10:16:09;11.10;73.50
43520;DHT22;46848;51.980;5.918;2023-03-14T10:18:34;11.10;72.70
43520;DHT22;46848;51.980;5.918;2023-03-14T10:23:39;11.10;72.60
43520;DHT22;46848;51.980;5.918;2023-03-14T10:26:13;11.00;71.20
43520;DHT22;46848;51.980;5.918;2023-03-14T10:31:08;11.00;72.50
43520;DHT22;46848;51.980;5.918;2023-03-14T10:33:36;11.10;72.80
43520;DHT22;46848;51.980;5.918;2023-03-14T10:36:05;11.20;72.50
43520;DHT22;46848;51.980;5.918;2023-03-14T10:38:40;11.20;72.20
43520;DHT22;46848;51.980;5.918;2023-03-14T10:41:26;11.30;72.10
43520;DHT22;46848;51.980;5.918;2023-03-14T10:43:58;11.40;72.30
43520;DHT22;46848;51.980;5.918;2023-03-14T10:46:25;11.50;72.40
43520;DHT22;46848;51.980;5.918;2023-03-14T10:48:53;11.50;71.80
43520;DHT22;46848;51.980;5.918;2023-03-14T10:51:25;11.40;68.90
43520;DHT22;46848;51.980;5.918;2023-03-14T10:54:01;11.20;70.20
43520;DHT22;46848;51.980;5.918;2023-03-14T10:56:34;11.10;69.90
43520;DHT22;46848;51.980;5.918;2023-03-14T10:59:00;11.00;70.60
43520;DHT22;46848;51.980;5.918;2023-03-14T11:07:21;11.10;71.50
43520;DHT22;46848;51.980;5.918;2023-03-14T11:18:25;10.60;72.30
43520;DHT22;46848;51.980;5.918;2023-03-14T11:21:13;10.60;71.90
43520;DHT22;46848;51.980;5.918;2023-03-14T11:23:41;10.80;72.60
43520;DHT22;46848;51.980;5.918;2023-03-14T11:26:28;10.90;72.40
43520;DHT22;46848;51.980;5.918;2023-03-14T11:29:42;10.90;72.50
43520;DHT22;46848;51.980;5.918;2023-03-14T11:31:48;10.80;70.70
43520;DHT22;46848;51.980;5.918;2023-03-14T11:34:52;10.60;72.00
43520;DHT22;46848;51.980;5.918;2023-03-14T11:37:33;10.70;72.40
43520;DHT22;46848;51.980;5.918;2023-03-14T11:40:17;10.70;72.60
43520;DHT22;46848;51.980;5.918;2023-03-14T11:42:44;10.90;72.40
43520;DHT22;46848;51.980;5.918;2023-03-14T11:45:21;11.00;72.10
43520;DHT22;46848;51.980;5.918;2023-03-14T11:48:05;11.10;72.10
43520;DHT22;46848;51.980;5.918;2023-03-14T11:50:33;11.20;70.80
43520;DHT22;46848;51.980;5.918;2023-03-14T11:53:07;11.30;70.90
43520;DHT22;46848;51.980;5.918;2023-03-14T11:55:36;11.50;69.70
43520;DHT22;46848;51.980;5.918;2023-03-14T11:58:30;11.50;68.00
43520;DHT22;46848;51.980;5.918;2023-03-14T12:00:57;11.70;68.70
43520;DHT22;46848;51.980;5.918;2023-03-14T12:03:46;12.00;68.40
43520;DHT22;46848;51.980;5.918;2023-03-14T12:06:31;12.30;67.50
43520;DHT22;46848;51.980;5.918;2023-03-14T12:09:01;12.60;66.50
43520;DHT22;46848;51.980;5.918;2023-03-14T12:11:59;12.80;64.30
43520;DHT22;46848;51.980;5.918;2023-03-14T12:14:28;12.90;64.50
43520;DHT22;46848;51.980;5.918;2023-03-14T12:17:41;13.00;64.70
43520;DHT22;46848;51.980;5.918;2023-03-14T12:19:42;13.20;64.30
43520;DHT22;46848;51.980;5.918;2023-03-14T12:22:18;13.10;59.80
43520;DHT22;46848;51.980;5.918;2023-03-14T12:25:13;13.20;60.00
43520;DHT22;46848;51.980;5.918;2023-03-14T12:30:31;13.40;55.30
43520;DHT22;46848;51.980;5.918;2023-03-14T12:35:43;13.60;58.60
43520;DHT22;46848;51.980;5.918;2023-03-14T15:18:16;12.90;48.30
43520;DHT22;46848;51.980;5.918;2023-03-14T15:20:43;12.80;48.50
43520;DHT22;46848;51.980;5.918;2023-03-14T15:23:13;12.70;49.20
43520;DHT22;46848;51.980;5.918;2023-03-14T15:25:40;12.80;50.00
43520;DHT22;46848;51.980;5.918;2023-03-14T15:28:18;12.60;44.70
43520;DHT22;46848;51.980;5.918;2023-03-14T15:30:46;12.40;49.50
43520;DHT22;46848;51.980;5.918;2023-03-14T15:33:13;12.30;50.40
43520;DHT22;46848;51.980;5.918;2023-03-14T15:35:38;12.30;50.90
43520;DHT22;46848;51.980;5.918;2023-03-14T15:38:04;12.30;51.20
43520;DHT22;46848;51.980;5.918;2023-03-14T15:40:30;12.20;51.50
43520;DHT22;46848;51.980;5.918;2023-03-14T15:42:56;12.20;51.80
43520;DHT22;46848;51.980;5.918;2023-03-14T15:45:21;12.20;49.70
43520;DHT22;46848;51.980;5.918;2023-03-14T15:47:47;12.00;48.40
43520;DHT22;46848;51.980;5.918;2023-03-14T15:50:12;11.80;49.70
43520;DHT22;46848;51.980;5.918;2023-03-14T15:52:38;11.80;50.70
43520;DHT22;46848;51.980;5.918;2023-03-14T15:55:04;11.80;49.10
43520;DHT22;46848;51.980;5.918;2023-03-14T15:57:30;11.70;50.50
43520;DHT22;46848;51.980;5.918;2023-03-14T15:59:55;11.70;51.60
43520;DHT22;46848;51.980;5.918;2023-03-14T16:02:21;11.70;52.00
43520;DHT22;46848;51.980;5.918;2023-03-14T16:04:46;11.60;49.90
43520;DHT22;46848;51.980;5.918;2023-03-14T16:07:12;11.50;51.30
43520;DHT22;46848;51.980;5.918;2023-03-14T16:09:38;11.50;51.90
43520;DHT22;46848;51.980;5.918;2023-03-14T16:12:03;11.50;52.20
43520;DHT22;46848;51.980;5.918;2023-03-14T16:14:30;11.50;52.10
43520;DHT22;46848;51.980;5.918;2023-03-14T16:16:56;11.40;52.60
43520;DHT22;46848;51.980;5.918;2023-03-14T16:19:25;11.40;53.00
43520;DHT22;46848;51.980;5.918;2023-03-14T16:21:56;11.30;52.80
43520;DHT22;46848;51.980;5.918;2023-03-14T16:24:21;11.30;51.10
43520;DHT22;46848;51.980;5.918;2023-03-14T16:26:47;11.10;52.30
43520;DHT22;46848;51.980;5.918;2023-03-14T16:29:13;11.10;52.90
43520;DHT22;46848;51.980;5.918;2023-03-14T16:31:38;11.10;52.90
43520;DHT22;46848;51.980;5.918;2023-03-14T16:34:08;11.10;52.70
43520;DHT22;46848;51.980;5.918;2023-03-14T16:36:34;11.00;52.80
43520;DHT22;46848;51.980;5.918;2023-03-14T16:38:59;10.90;52.40
43520;DHT22;46848;51.980;5.918;2023-03-14T16:41:25;11.00;52.90
43520;DHT22;46848;51.980;5.918;2023-03-14T16:43:58;10.90;53.00
43520;DHT22;46848;51.980;5.918;2023-03-14T16:46:24;10.80;53.20
43520;DHT22;46848;51.980;5.918;2023-03-14T16:48:51;10.80;51.60
43520;DHT22;46848;51.980;5.918;2023-03-14T16:51:17;10.70;52.70
43520;DHT22;46848;51.980;5.918;2023-03-14T16:53:43;10.60;51.90
43520;DHT22;46848;51.980;5.918;2023-03-14T16:56:09;10.60;52.50
43520;DHT22;46848;51.980;5.918;2023-03-14T16:58:35;10.60;52.50
43520;DHT22;46848;51.980;5.918;2023-03-14T17:01:05;10.60;52.60
43520;DHT22;46848;51.980;5.918;2023-03-14T17:03:36;10.50;52.50
43520;DHT22;46848;51.980;5.918;2023-03-14T17:06:01;10.40;52.50
43520;DHT22;46848;51.980;5.918;2023-03-14T17:08:28;10.40;48.80
43520;DHT22;46848;51.980;5.918;2023-03-14T17:10:54;10.40;51.40
43520;DHT22;46848;51.980;5.918;2023-03-14T17:13:19;10.30;51.90
43520;DHT22;46848;51.980;5.918;2023-03-14T17:15:55;10.30;52.30
43520;DHT22;46848;51.980;5.918;2023-03-14T17:18:22;10.30;52.50
43520;DHT22;46848;51.980;5.918;2023-03-14T17:20:49;10.30;53.40
43520;DHT22;46848;51.980;5.918;2023-03-14T17:23:15;10.30;52.70
43520;DHT22;46848;51.980;5.918;2023-03-14T17:25:41;10.20;53.00
43520;DHT22;46848;51.980;5.918;2023-03-14T17:28:06;10.20;53.30
43520;DHT22;46848;51.980;5.918;2023-03-14T17:30:32;10.20;53.30
43520;DHT22;46848;51.980;5.918;2023-03-14T17:32:58;10.20;53.30
43520;DHT22;46848;51.980;5.918;2023-03-14T17:35:24;10.20;53.40
43520;DHT22;46848;51.980;5.918;2023-03-14T17:37:50;10.20;53.50
43520;DHT22;46848;51.980;5.918;2023-03-14T17:40:15;10.20;53.80
43520;DHT22;46848;51.980;5.918;2023-03-14T17:42:41;10.20;53.90
43520;DHT22;46848;51.980;5.918;2023-03-14T17:45:07;10.10;54.00
43520;DHT22;46848;51.980;5.918;2023-03-14T17:47:33;10.10;54.10
43520;DHT22;46848;51.980;5.918;2023-03-14T17:49:58;10.00;54.20
43520;DHT22;46848;51.980;5.918;2023-03-14T17:52:30;10.00;54.20
43520;DHT22;46848;51.980;5.918;2023-03-14T17:54:56;10.00;54.40
43520;DHT22;46848;51.980;5.918;2023-03-14T17:57:21;10.00;54.60
43520;DHT22;46848;51.980;5.918;2023-03-14T17:59:47;9.90;54.30
43520;DHT22;46848;51.980;5.918;2023-03-14T18:02:12;9.90;54.70
43520;DHT22;46848;51.980;5.918;2023-03-14T18:04:38;9.80;55.10
43520;DHT22;46848;51.980;5.918;2023-03-14T18:07:04;9.80;54.70
43520;DHT22;46848;51.980;5.918;2023-03-14T18:09:30;9.80;54.80
43520;DHT22;46848;51.980;5.918;2023-03-14T18:11:55;9.80;54.80
43520;DHT22;46848;51.980;5.918;2023-03-14T18:14:21;9.70;53.90
43520;DHT22;46848;51.980;5.918;2023-03-14T18:16:46;9.70;54.50
43520;DHT22;46848;51.980;5.918;2023-03-14T18:19:17;9.60;54.50
43520;DHT22;46848;51.980;5.918;2023-03-14T18:21:43;9.60;54.70
43520;DHT22;46848;51.980;5.918;2023-03-14T18:24:09;9.50;54.90
43520;DHT22;46848;51.980;5.918;2023-03-14T18:26:35;9.50;55.00
43520;DHT22;46848;51.980;5.918;2023-03-14T18:29:01;9.30;54.60
43520;DHT22;46848;51.980;5.918;2023-03-14T18:31:27;9.40;55.10
43520;DHT22;46848;51.980;5.918;2023-03-14T18:33:54;9.30;55.20
43520;DHT22;46848;51.980;5.918;2023-03-14T18:36:21;9.30;55.30
43520;DHT22;46848;51.980;5.918;2023-03-14T18:38:46;9.20;55.50
43520;DHT22;46848;51.980;5.918;2023-03-14T18:41:17;9.20;55.50
43520;DHT22;46848;51.980;5.918;2023-03-14T18:43:44;9.30;55.70
43520;DHT22;46848;51.980;5.918;2023-03-14T18:46:11;9.10;55.60
43520;DHT22;46848;51.980;5.918;2023-03-14T18:48:37;9.10;55.60
43520;DHT22;46848;51.980;5.918;2023-03-14T18:51:09;9.10;55.60